createdAt,value
2018-07-22T00:00:10.564Z,99947.41
2018-07-22T00:02:39.457Z,99946.92
2018-07-22T00:05:06.919Z,99948.69
2018-07-22T00:07:34.040Z,99940.34
2018-07-22T00:10:01.132Z,99941.29
2018-07-22T00:12:28.272Z,99941.59
2018-07-22T00:14:55.272Z,99939.12
2018-07-22T00:17:22.365Z,99935.36
2018-07-22T00:19:49.427Z,99932.81
2018-07-22T00:22:17.267Z,99933.83
2018-07-22T00:24:44.426Z,99934.28
2018-07-22T00:27:11.529Z,99932.27
2018-07-22T00:29:40.596Z,99936.03
2018-07-22T00:32:10.224Z,99937.53
2018-07-22T00:34:40.195Z,99938.88
2018-07-22T00:37:07.235Z,99936.23
2018-07-22T00:39:39.692Z,99937.15
2018-07-22T00:42:06.737Z,99936.02
2018-07-22T00:44:33.777Z,99935.27
2018-07-22T00:47:00.879Z,99935.57
2018-07-22T00:49:28.971Z,99940.03
2018-07-22T00:51:57.652Z,99936.83
2018-07-22T00:54:24.748Z,99933.05
2018-07-22T00:56:51.825Z,99935.48
2018-07-22T00:59:18.869Z,99940.52
2018-07-22T01:01:45.863Z,99934.05
2018-07-22T01:04:12.941Z,99935.23
2018-07-22T01:06:40.069Z,99935.38
2018-07-22T01:09:07.887Z,99920.18
2018-07-22T01:11:34.955Z,99931.42
2018-07-22T01:14:06.045Z,99926.69
2018-07-22T01:16:41.398Z,99920.27
2018-07-22T01:19:11.822Z,99922.12
2018-07-22T01:21:42.941Z,99919.97
2018-07-22T01:24:10.026Z,99917.67
2018-07-22T01:26:37.132Z,99920.47
2018-07-22T01:29:04.109Z,99921.08
2018-07-22T01:31:31.336Z,99921.58
2018-07-22T01:33:58.404Z,99919.19
2018-07-22T01:36:30.175Z,99924.00
2018-07-22T01:38:57.256Z,99928.64
2018-07-22T01:41:24.256Z,99928.73
2018-07-22T01:43:54.306Z,99924.13
2018-07-22T01:46:24.512Z,99927.09
2018-07-22T01:48:51.594Z,99931.64
2018-07-22T01:51:22.706Z,99934.91
2018-07-22T01:53:50.805Z,99936.23
2018-07-22T01:56:17.839Z,99937.44
2018-07-22T01:58:46.848Z,99940.58
2018-07-22T02:01:20.764Z,99943.84
2018-07-22T02:03:47.860Z,99943.13
2018-07-22T02:06:15.749Z,99946.64
2018-07-22T02:08:42.799Z,99947.66
2018-07-22T02:11:10.784Z,99946.41
2018-07-22T02:13:38.731Z,99951.36
2018-07-22T02:16:12.944Z,99949.19
2018-07-22T02:18:43.984Z,99944.73
2018-07-22T02:22:33.812Z,99949.09
2018-07-22T02:25:01.904Z,99950.20
2018-07-22T02:27:35.276Z,99943.92
2018-07-22T02:30:02.324Z,99944.02
2018-07-22T02:32:30.373Z,99942.31
2018-07-22T02:34:58.392Z,99945.23
2018-07-22T02:37:26.791Z,99940.80
2018-07-22T02:39:58.703Z,99936.93
2018-07-22T02:42:26.827Z,99928.22
2018-07-22T02:44:53.946Z,99932.05
2018-07-22T02:47:20.944Z,99925.37
2018-07-22T02:49:48.041Z,99940.56
2018-07-22T02:52:16.092Z,99932.01
2018-07-22T02:54:45.928Z,99936.85
2018-07-22T02:57:13.767Z,99944.84
2018-07-22T02:59:41.876Z,99944.62
2018-07-22T03:02:20.534Z,99947.37
2018-07-22T03:04:53.036Z,99950.60
2018-07-22T03:07:26.416Z,99942.28
2018-07-22T03:09:53.675Z,99946.44
2018-07-22T03:12:20.786Z,99940.09
2018-07-22T03:14:47.875Z,99945.86
2018-07-22T03:17:14.916Z,99947.26
2018-07-22T03:19:42.000Z,99946.59
2018-07-22T03:22:09.077Z,99950.30
2018-07-22T03:24:37.099Z,99951.21
2018-07-22T03:27:04.389Z,99951.11
2018-07-22T03:29:31.400Z,99944.53
2018-07-22T03:31:58.564Z,99951.91
2018-07-22T03:34:25.676Z,99947.56
2018-07-22T03:36:52.828Z,99952.25
2018-07-22T03:39:28.028Z,99955.66
2018-07-22T03:41:58.857Z,99953.02
2018-07-22T03:44:25.982Z,99954.67
2018-07-22T03:46:53.863Z,99953.49
2018-07-22T03:49:23.968Z,99956.94
2018-07-22T03:51:51.064Z,99958.84
2018-07-22T03:54:18.920Z,99953.49
2018-07-22T03:56:46.951Z,99958.24
2018-07-22T03:59:14.013Z,99961.06
2018-07-22T04:01:44.880Z,99963.16
2018-07-22T04:04:11.932Z,99962.53
2018-07-22T04:06:39.024Z,99961.59
2018-07-22T04:09:06.892Z,99964.05
2018-07-22T04:11:33.983Z,99965.97
2018-07-22T04:14:01.170Z,99963.70
2018-07-22T04:16:29.885Z,99970.42
2018-07-22T04:19:03.148Z,99963.43
2018-07-22T04:21:30.882Z,99971.69
2018-07-22T04:24:04.127Z,99966.59
2018-07-22T04:26:31.788Z,99973.27
2018-07-22T04:29:06.561Z,99967.00
2018-07-22T04:31:35.256Z,99974.72
2018-07-22T04:34:02.367Z,99978.92
2018-07-22T04:36:29.431Z,99977.06
2018-07-22T04:38:56.556Z,99980.80
2018-07-22T04:41:23.649Z,99986.80
2018-07-22T04:43:50.849Z,99986.03
2018-07-22T04:46:18.007Z,99989.56
2018-07-22T04:48:46.309Z,99982.75
2018-07-22T04:51:13.423Z,99988.27
2018-07-22T04:53:40.528Z,100003.39
2018-07-22T04:56:07.520Z,99997.00
2018-07-22T04:58:36.345Z,99997.44
2018-07-22T05:01:03.403Z,100005.23
2018-07-22T05:03:30.392Z,100008.53
2018-07-22T05:05:57.476Z,100007.74
2018-07-22T05:08:27.344Z,100006.05
2018-07-22T05:10:54.401Z,100006.14
2018-07-22T05:13:21.461Z,100006.66
2018-07-22T05:15:48.537Z,100013.64
2018-07-22T05:18:20.307Z,100012.42
2018-07-22T05:20:47.379Z,100009.24
2018-07-22T05:23:16.504Z,100008.31
2018-07-22T05:25:43.528Z,100004.75
2018-07-22T05:28:13.950Z,100009.44
2018-07-22T05:30:49.288Z,100010.57
2018-07-22T05:33:17.896Z,100015.47
2018-07-22T05:35:45.952Z,100018.40
2018-07-22T05:38:14.910Z,100018.23
2018-07-22T05:40:43.011Z,100029.38
2018-07-22T05:43:10.233Z,100023.03
2018-07-22T05:45:37.856Z,100032.41
2018-07-22T05:48:05.341Z,100032.71
2018-07-22T05:50:33.495Z,100037.63
2018-07-22T05:53:02.425Z,100035.92
2018-07-22T05:55:34.970Z,100045.33
2018-07-22T05:58:05.108Z,100043.05
2018-07-22T06:00:32.259Z,100050.63
2018-07-22T06:02:59.356Z,100058.39
2018-07-22T06:05:26.569Z,100052.45
2018-07-22T06:07:54.698Z,100053.81
2018-07-22T06:10:24.932Z,100056.63
2018-07-22T06:12:52.939Z,100060.73
2018-07-22T06:15:26.187Z,100059.28
2018-07-22T06:17:53.322Z,100062.23
2018-07-22T06:20:24.940Z,100060.80
2018-07-22T06:22:52.915Z,100067.02
2018-07-22T06:25:24.643Z,100051.83
2018-07-22T06:27:51.716Z,100062.46
2018-07-22T06:30:24.816Z,100064.97
2018-07-22T06:33:02.165Z,100068.58
2018-07-22T06:35:32.240Z,100067.42
2018-07-22T06:38:01.029Z,100061.65
2018-07-22T06:40:28.128Z,100051.89
2018-07-22T06:42:55.933Z,100053.80
2018-07-22T06:45:23.036Z,100061.75
2018-07-22T06:47:53.630Z,100062.48
2018-07-22T06:50:21.068Z,100058.88
2018-07-22T06:52:48.975Z,100057.51
2018-07-22T06:55:18.088Z,100059.97
2018-07-22T06:57:45.165Z,100061.52
2018-07-22T07:00:13.995Z,100060.41
2018-07-22T07:02:41.073Z,100067.41
2018-07-22T07:05:08.274Z,100070.13
2018-07-22T07:07:35.268Z,100066.95
2018-07-22T07:10:02.445Z,100060.53
2018-07-22T07:12:29.491Z,100066.70
2018-07-22T07:15:00.428Z,100069.37
2018-07-22T07:17:27.532Z,100070.98
2018-07-22T07:19:54.675Z,100072.27
2018-07-22T07:22:21.780Z,100070.36
2018-07-22T07:24:51.084Z,100072.11
2018-07-22T07:27:24.519Z,100069.21
2018-07-22T07:29:51.561Z,100073.78
2018-07-22T07:32:18.658Z,100073.70
2018-07-22T07:34:45.712Z,100078.16
2018-07-22T07:37:12.707Z,100083.09
2018-07-22T07:39:40.792Z,100077.91
2018-07-22T07:42:07.816Z,100077.95
2018-07-22T07:44:34.923Z,100077.70
2018-07-22T07:47:01.983Z,100087.25
2018-07-22T07:49:29.085Z,100081.61
2018-07-22T07:52:00.269Z,100091.30
2018-07-22T07:54:27.447Z,100073.94
2018-07-22T07:56:54.669Z,100080.46
2018-07-22T07:59:21.881Z,100077.81
2018-07-22T08:01:49.094Z,100080.72
2018-07-22T08:04:16.244Z,100085.66
2018-07-22T08:06:47.048Z,100082.09
2018-07-22T08:09:14.370Z,100082.86
2018-07-22T08:11:41.995Z,100085.66
2018-07-22T08:14:09.013Z,100089.43
2018-07-22T08:16:36.526Z,100093.19
2018-07-22T08:19:03.930Z,100095.38
2018-07-22T08:21:31.071Z,100099.36
2018-07-22T08:24:00.089Z,100093.23
2018-07-22T08:26:27.088Z,100095.80
2018-07-22T08:29:17.503Z,100094.53
2018-07-22T08:31:45.507Z,100092.62
2018-07-22T08:34:16.353Z,100093.73
2018-07-22T08:36:43.480Z,100095.41
2018-07-22T08:39:15.243Z,100090.83
2018-07-22T08:41:43.331Z,100094.21
2018-07-22T08:44:10.974Z,100097.00
2018-07-22T08:46:39.406Z,100095.89
2018-07-22T08:49:06.573Z,100090.70
2018-07-22T08:51:33.627Z,100092.83
2018-07-22T08:54:01.245Z,100091.95
2018-07-22T08:56:29.412Z,100099.34
2018-07-22T08:58:56.700Z,100100.97
2018-07-22T09:01:24.496Z,100083.86
2018-07-22T09:03:59.478Z,100091.08
2018-07-22T09:06:32.924Z,100091.42
2018-07-22T09:08:59.969Z,100093.25
2018-07-22T09:11:28.004Z,100099.66
2018-07-22T09:13:55.669Z,100096.30
2018-07-22T09:16:22.746Z,100090.89
2018-07-22T09:18:49.752Z,100093.03
2018-07-22T09:21:19.919Z,100093.06
2018-07-22T09:23:47.616Z,100092.55
2018-07-22T09:26:14.705Z,100097.16
2018-07-22T09:28:43.864Z,100099.72
2018-07-22T09:31:13.556Z,100100.05
2018-07-22T09:33:42.597Z,100098.33
2018-07-22T09:36:16.984Z,100098.20
2018-07-22T09:38:43.882Z,100102.51
2018-07-22T09:41:10.940Z,100103.46
2018-07-22T09:43:41.881Z,100103.02
2018-07-22T09:46:10.620Z,100105.78
2018-07-22T09:48:37.716Z,100106.05
2018-07-22T09:51:05.612Z,100104.36
2018-07-22T09:53:32.700Z,100104.88
2018-07-22T09:55:59.813Z,100109.84
2018-07-22T09:58:28.923Z,100101.11
2018-07-22T10:01:01.170Z,100107.82
2018-07-22T10:03:29.059Z,100099.64
2018-07-22T10:05:58.096Z,100109.26
2018-07-22T10:08:25.320Z,100103.39
2018-07-22T10:10:52.439Z,100105.36
2018-07-22T10:13:19.436Z,100099.83
2018-07-22T10:15:47.200Z,100100.09
2018-07-22T10:18:14.396Z,100102.39
2018-07-22T10:20:41.449Z,100098.61
2018-07-22T10:23:08.746Z,100096.16
2018-07-22T10:25:35.782Z,100095.06
2018-07-22T10:28:10.076Z,100096.30
2018-07-22T10:30:37.075Z,100089.10
2018-07-22T10:33:05.276Z,100089.39
2018-07-22T10:35:32.336Z,100086.55
2018-07-22T10:37:59.432Z,100096.27
2018-07-22T10:40:28.140Z,100098.56
2018-07-22T10:42:55.250Z,100100.61
2018-07-22T10:45:22.332Z,100091.62
2018-07-22T10:47:52.527Z,100095.67
2018-07-22T10:50:19.622Z,100087.22
2018-07-22T10:52:46.676Z,100090.19
2018-07-22T10:55:13.770Z,100083.24
2018-07-22T10:57:41.568Z,100077.55
2018-07-22T11:00:08.612Z,100086.12
2018-07-22T11:02:38.995Z,100077.31
2018-07-22T11:05:07.294Z,100076.84
2018-07-22T11:07:34.579Z,100070.51
2018-07-22T11:10:05.173Z,100079.38
2018-07-22T11:12:32.309Z,100081.71
2018-07-22T11:15:00.417Z,100071.70
2018-07-22T11:17:31.628Z,100069.53
2018-07-22T11:19:58.659Z,100066.30
2018-07-22T11:22:28.926Z,100073.81
2018-07-22T11:24:56.163Z,100068.08
2018-07-22T11:27:24.192Z,100063.22
2018-07-22T11:29:54.188Z,100065.30
2018-07-22T11:32:23.308Z,100066.43
2018-07-22T11:34:53.367Z,100058.98
2018-07-22T11:37:20.492Z,100060.41
2018-07-22T11:39:47.612Z,100055.75
2018-07-22T11:42:14.679Z,100047.41
2018-07-22T11:44:41.738Z,100056.52
2018-07-22T11:47:08.848Z,100057.84
2018-07-22T11:49:36.008Z,100059.84
2018-07-22T11:52:06.696Z,100050.42
2018-07-22T11:54:33.748Z,100065.67
2018-07-22T11:57:00.800Z,100049.92
2018-07-22T11:59:37.635Z,100049.17
2018-07-22T12:02:14.760Z,100045.19
2018-07-22T12:04:45.156Z,100048.55
2018-07-22T12:07:13.240Z,100059.48
2018-07-22T12:09:41.392Z,100042.94
2018-07-22T12:12:08.738Z,100044.22
2018-07-22T12:14:35.741Z,100037.56
2018-07-22T12:17:02.784Z,100029.85
2018-07-22T12:19:29.846Z,100028.47
2018-07-22T12:21:56.927Z,100028.40
2018-07-22T12:24:30.376Z,100025.06
2018-07-22T12:26:57.492Z,100022.90
2018-07-22T12:29:27.584Z,100016.74
2018-07-22T12:31:54.703Z,100009.63
2018-07-22T12:34:21.736Z,100011.78
2018-07-22T12:36:49.726Z,100011.20
2018-07-22T12:39:17.820Z,99999.32
2018-07-22T12:41:49.544Z,99997.94
2018-07-22T12:44:17.102Z,100006.61
2018-07-22T12:46:44.187Z,100002.39
2018-07-22T12:49:15.116Z,99997.91
2018-07-22T12:51:44.260Z,99996.02
2018-07-22T12:54:11.318Z,99994.73
2018-07-22T12:56:42.088Z,99993.73
2018-07-22T12:59:10.146Z,99991.97
2018-07-22T13:01:37.977Z,99993.33
2018-07-22T13:04:05.323Z,99995.80
2018-07-22T13:06:32.417Z,99984.53
2018-07-22T13:09:02.488Z,99990.55
2018-07-22T13:11:31.561Z,99990.90
2018-07-22T13:14:00.220Z,99983.13
2018-07-22T13:16:28.328Z,99988.27
2018-07-22T13:18:58.419Z,99991.39
2018-07-22T13:21:26.468Z,99987.86
2018-07-22T13:23:56.526Z,99992.44
2018-07-22T13:26:23.764Z,99984.27
2018-07-22T13:28:50.829Z,99990.30
2018-07-22T13:31:17.972Z,99983.08
2018-07-22T13:33:45.085Z,99989.59
2018-07-22T13:36:12.119Z,99982.91
2018-07-22T13:38:42.187Z,99985.03
2018-07-22T13:41:10.306Z,99984.41
2018-07-22T13:43:37.340Z,99985.09
2018-07-22T13:46:04.448Z,99992.14
2018-07-22T13:48:31.500Z,99987.95
2018-07-22T13:50:58.670Z,99992.12
2018-07-22T13:53:25.732Z,99995.00
2018-07-22T13:55:53.836Z,99994.89
2018-07-22T13:58:24.033Z,99990.01
2018-07-22T14:00:51.628Z,99981.77
2018-07-22T14:03:19.757Z,99984.63
2018-07-22T14:05:46.917Z,99984.48
2018-07-22T14:08:17.404Z,99982.06
2018-07-22T14:10:46.959Z,99975.36
2018-07-22T14:13:14.153Z,99983.87
2018-07-22T14:15:41.411Z,99979.28
2018-07-22T14:18:10.292Z,99985.08
2018-07-22T14:20:44.693Z,99982.17
2018-07-22T14:23:11.726Z,99982.53
2018-07-22T14:25:38.900Z,99981.78
2018-07-22T14:28:14.050Z,99982.58
2018-07-22T14:33:16.800Z,99976.06
2018-07-22T14:35:44.745Z,99965.46
2018-07-22T14:38:12.700Z,99960.00
2018-07-22T14:40:39.800Z,99957.09
2018-07-22T14:43:07.132Z,99950.63
2018-07-22T14:45:34.240Z,99946.13
2018-07-22T14:48:06.860Z,99948.41
2018-07-22T14:50:34.672Z,99958.25
2018-07-22T14:53:01.782Z,99943.49
2018-07-22T14:55:28.857Z,99948.45
2018-07-22T14:57:55.919Z,99934.09
2018-07-22T15:02:58.684Z,99946.84
2018-07-22T15:05:26.911Z,99948.86
2018-07-22T15:07:54.756Z,99948.98
2018-07-22T15:10:21.839Z,99958.06
2018-07-22T15:12:49.068Z,99958.21
2018-07-22T15:15:17.744Z,99951.67
2018-07-22T15:17:44.792Z,99951.23
2018-07-22T15:20:14.851Z,99959.81
2018-07-22T15:22:42.034Z,99958.73
2018-07-22T15:25:09.119Z,99963.28
2018-07-22T15:27:36.784Z,99957.96
2018-07-22T15:30:04.372Z,99966.23
2018-07-22T15:32:31.451Z,99973.68
2018-07-22T15:35:00.560Z,99977.05
2018-07-22T15:37:30.772Z,99983.70
2018-07-22T15:40:00.879Z,100000.68
2018-07-22T15:42:27.964Z,100002.87
2018-07-22T15:44:55.661Z,100038.31
2018-07-22T15:47:22.744Z,100050.91
2018-07-22T15:49:50.180Z,100052.63
2018-07-22T15:52:17.416Z,100049.39
2018-07-22T15:54:48.443Z,100058.17
2018-07-22T15:57:21.159Z,100072.55
2018-07-22T15:59:48.316Z,100049.08
2018-07-22T16:02:16.391Z,100046.47
2018-07-22T16:04:43.474Z,100056.36
2018-07-22T16:07:13.660Z,100051.52
2018-07-22T16:09:41.092Z,100052.38
2018-07-22T16:12:08.190Z,100055.77
2018-07-22T16:14:36.281Z,100053.31
2018-07-22T16:17:06.414Z,100060.66
2018-07-22T16:19:33.543Z,100051.69
2018-07-22T16:22:00.677Z,100058.99
2018-07-22T16:24:28.833Z,100051.20
2018-07-22T16:26:56.028Z,100042.99
2018-07-22T16:29:32.688Z,100043.70
2018-07-22T16:32:03.830Z,100031.69
2018-07-22T16:34:30.895Z,100033.67
2018-07-22T16:36:57.928Z,100032.86
2018-07-22T16:39:25.040Z,100030.17
2018-07-22T16:41:58.777Z,100023.84
2018-07-22T16:44:25.863Z,100020.27
2018-07-22T16:46:52.981Z,100032.34
2018-07-22T16:49:20.180Z,100023.44
2018-07-22T16:51:47.323Z,100012.09
2018-07-22T16:54:15.400Z,100018.52
2018-07-22T16:56:42.648Z,100009.66
2018-07-22T16:59:12.971Z,100006.25
2018-07-22T17:01:40.080Z,100002.99
2018-07-22T17:04:07.104Z,100021.20
2018-07-22T17:06:37.220Z,100021.45
2018-07-22T17:09:07.572Z,100019.05
2018-07-22T17:11:34.727Z,100027.13
2018-07-22T17:14:01.846Z,100018.86
2018-07-22T17:16:32.795Z,100028.14
2018-07-22T17:19:04.425Z,100036.20
2018-07-22T17:21:37.749Z,100032.71
2018-07-22T17:24:05.340Z,100032.69
2018-07-22T17:26:38.664Z,100029.55
2018-07-22T17:29:09.436Z,100045.78
2018-07-22T17:31:39.644Z,100050.16
2018-07-22T17:34:08.295Z,100061.50
2018-07-22T17:36:39.004Z,100061.84
2018-07-22T17:39:07.964Z,100071.95
2018-07-22T17:41:37.595Z,100079.57
2018-07-22T17:44:45.937Z,100082.59
2018-07-22T17:47:12.974Z,100083.91
2018-07-22T17:49:40.083Z,100087.66
2018-07-22T17:52:21.332Z,100090.09
2018-07-22T17:54:49.295Z,100086.50
2018-07-22T17:57:17.534Z,100090.14
2018-07-22T17:59:45.064Z,100090.56
2018-07-22T18:02:13.966Z,100088.95
2018-07-22T18:04:41.919Z,100094.22
2018-07-22T18:07:08.984Z,100091.01
2018-07-22T18:09:36.156Z,100096.44
2018-07-22T18:12:14.131Z,100089.71
2018-07-22T18:14:41.147Z,100096.41
2018-07-22T18:17:08.296Z,100095.53
2018-07-22T18:19:37.403Z,100092.18
2018-07-22T18:22:05.533Z,100093.96
2018-07-22T18:24:32.684Z,100087.41
2018-07-22T18:27:00.333Z,100092.73
2018-07-22T18:29:27.499Z,100094.13
2018-07-22T18:31:55.620Z,100102.70
2018-07-22T18:34:26.680Z,100106.69
2018-07-22T18:36:55.375Z,100105.17
2018-07-22T18:39:24.330Z,100114.04
2018-07-22T18:41:53.228Z,100114.41
2018-07-22T18:44:28.269Z,100118.29
2018-07-22T18:46:55.431Z,100111.13
2018-07-22T18:49:24.255Z,100107.90
2018-07-22T18:51:54.568Z,100106.36
2018-07-22T18:54:21.771Z,100105.91
2018-07-22T18:56:50.432Z,100104.73
2018-07-22T18:59:19.621Z,100118.04
2018-07-22T19:01:49.971Z,100124.30
2018-07-22T19:04:20.172Z,100122.33
2018-07-22T19:06:47.398Z,100124.98
2018-07-22T19:09:30.509Z,100123.95
2018-07-22T19:11:57.674Z,100120.50
2018-07-22T19:14:25.456Z,100126.89
2018-07-22T19:16:56.506Z,100123.48
2018-07-22T19:19:23.868Z,100131.15
2018-07-22T19:21:50.988Z,100135.87
2018-07-22T19:24:18.150Z,100133.80
2018-07-22T19:26:48.336Z,100138.52
2018-07-22T19:29:16.515Z,100144.70
2018-07-22T19:31:43.588Z,100140.60
2018-07-22T19:34:20.266Z,100141.73
2018-07-22T19:36:51.353Z,100149.59
2018-07-22T19:39:21.574Z,100160.62
2018-07-22T19:41:48.719Z,100162.97
2018-07-22T19:44:15.776Z,100164.08
2018-07-22T19:46:43.583Z,100162.92
2018-07-22T19:49:11.630Z,100161.66
2018-07-22T19:51:39.519Z,100173.30
2018-07-22T19:54:07.408Z,100176.47
2018-07-22T19:56:37.957Z,100172.50
2018-07-22T19:59:13.519Z,100176.77
2018-07-22T20:01:42.321Z,100176.67
2018-07-22T20:04:11.244Z,100174.92
2018-07-22T20:06:42.608Z,100181.48
2018-07-22T20:09:11.896Z,100179.64
2018-07-22T20:11:40.820Z,100181.59
2018-07-22T20:14:07.958Z,100183.20
2018-07-22T20:16:37.141Z,100183.14
2018-07-22T20:19:05.037Z,100184.74
2018-07-22T20:21:32.529Z,100187.81
2018-07-22T20:24:00.695Z,100187.70
2018-07-22T20:26:28.619Z,100188.20
2018-07-22T20:28:56.527Z,100182.91
2018-07-22T20:31:25.571Z,100183.70
2018-07-22T20:33:52.700Z,100184.69
2018-07-22T20:36:19.880Z,100179.87
2018-07-22T20:38:47.952Z,100191.95
2018-07-22T20:41:17.062Z,100185.50
2018-07-22T20:43:46.060Z,100187.69
2018-07-22T20:46:13.216Z,100192.11
2018-07-22T20:48:42.088Z,100190.64
2018-07-22T20:51:18.367Z,100187.66
2018-07-22T20:53:46.087Z,100189.05
2018-07-22T20:56:14.070Z,100189.09
2018-07-22T20:58:47.011Z,100186.16
2018-07-22T21:01:15.036Z,100184.66
2018-07-22T21:03:42.201Z,100185.67
2018-07-22T21:06:10.084Z,100192.82
2018-07-22T21:08:38.063Z,100188.34
2018-07-22T21:11:09.615Z,100194.58
2018-07-22T21:13:41.524Z,100196.66
2018-07-22T21:16:09.571Z,100193.98
2018-07-22T21:18:39.813Z,100195.34
2018-07-22T21:21:09.864Z,100197.27
2018-07-22T21:23:37.512Z,100199.81
2018-07-22T21:26:05.617Z,100198.41
2018-07-22T21:28:32.774Z,100198.65
2018-07-22T21:31:05.971Z,100197.01
2018-07-22T21:33:42.848Z,100197.27
2018-07-22T21:36:15.984Z,100199.30
2018-07-22T21:38:46.102Z,100201.48
2018-07-22T21:41:19.532Z,100210.96
2018-07-22T21:43:54.764Z,100206.34
2018-07-22T21:46:28.096Z,100205.40
2018-07-22T21:48:58.204Z,100210.69
2018-07-22T21:51:28.373Z,100208.23
2018-07-22T21:53:58.580Z,100208.90
2018-07-22T21:56:25.742Z,100208.39
2018-07-22T21:58:58.882Z,100212.92
2018-07-22T22:01:28.967Z,100210.67
2018-07-22T22:03:57.064Z,100209.46
2018-07-22T22:06:28.756Z,100211.52
2018-07-22T22:08:55.871Z,100204.76
2018-07-22T22:11:23.168Z,100204.20
2018-07-22T22:13:50.260Z,100204.64
2018-07-22T22:16:21.152Z,100202.44
2018-07-22T22:18:51.287Z,100212.20
2018-07-22T22:21:20.130Z,100212.95
2018-07-22T22:23:48.093Z,100216.16
2018-07-22T22:26:24.763Z,100217.59
2018-07-22T22:28:59.148Z,100212.07
2018-07-22T22:31:29.337Z,100213.35
2018-07-22T22:34:02.685Z,100211.55
2018-07-22T22:36:36.000Z,100212.88
2018-07-22T22:39:07.254Z,100214.66
2018-07-22T22:41:35.113Z,100215.79
2018-07-22T22:44:03.079Z,100216.78
2018-07-22T22:49:27.503Z,100209.77
2018-07-22T22:51:54.724Z,100215.14
2018-07-22T22:54:21.788Z,100217.65
2018-07-22T22:56:49.949Z,100217.89
2018-07-22T22:59:22.105Z,100214.87
2018-07-22T23:01:49.488Z,100222.69
2018-07-22T23:04:16.825Z,100221.78
2018-07-22T23:06:44.089Z,100225.77
2018-07-22T23:09:12.456Z,100224.36
2018-07-22T23:11:40.184Z,100216.52
2018-07-22T23:14:07.932Z,100211.03
2018-07-22T23:16:34.980Z,100213.34
2018-07-22T23:19:02.501Z,100213.47
2018-07-22T23:21:30.859Z,100208.26
2018-07-22T23:23:57.956Z,100213.33
2018-07-22T23:26:25.068Z,100213.92
2018-07-22T23:28:53.259Z,100212.66
2018-07-22T23:31:24.325Z,100213.25
2018-07-22T23:33:55.391Z,100207.53
2018-07-22T23:36:22.464Z,100210.09
2018-07-22T23:38:49.519Z,100213.84
2018-07-22T23:41:25.214Z,100212.37
2018-07-22T23:43:53.039Z,100208.66
2018-07-22T23:46:21.036Z,100217.71
2018-07-22T23:48:48.106Z,100215.17
2018-07-22T23:51:17.177Z,100219.64
2018-07-22T23:53:44.209Z,100225.58
2018-07-22T23:56:15.695Z,100227.63
2018-07-22T23:58:47.775Z,100226.28
